sensor_id;sensor_type;location;lat;lon;timestamp;pressure;altitude;pressure_sealevel;temperature;humidity
64139;BME280;50435;43.700;-79.318;2024-03-02T00:01:32;101122.51;;;5.77;39.79
64139;BME280;50435;43.700;-79.318;2024-03-02T00:03:59;101117.11;;;5.78;39.70
64139;BME280;50435;43.700;-79.318;2024-03-02T00:06:26;101118.12;;;5.09;39.91
64139;BME280;50435;43.700;-79.318;2024-03-02T00:08:58;101112.37;;;5.63;39.84
64139;BME280;50435;43.700;-79.318;2024-03-02T00:11:25;101107.54;;;5.00;39.97
64139;BME280;50435;43.700;-79.318;2024-03-02T00:13:53;101103.67;;;5.91;39.90
64139;BME280;50435;43.700;-79.318;2024-03-02T00:16:20;101105.81;;;5.90;39.87
64139;BME280;50435;43.700;-79.318;2024-03-02T00:18:48;101103.46;;;5.68;39.84
64139;BME280;50435;43.700;-79.318;2024-03-02T00:21:15;101100.76;;;5.34;39.88
64139;BME280;50435;43.700;-79.318;2024-03-02T00:23:42;101103.89;;;5.38;39.86
64139;BME280;50435;43.700;-79.318;2024-03-02T00:26:11;101103.99;;;5.52;39.90
64139;BME280;50435;43.700;-79.318;2024-03-02T00:28:40;101105.88;;;5.72;39.86
64139;BME280;50435;43.700;-79.318;2024-03-02T00:31:10;101097.11;;;5.43;39.86
64139;BME280;50435;43.700;-79.318;2024-03-02T00:33:41;101092.82;;;5.26;40.00
64139;BME280;50435;43.700;-79.318;2024-03-02T00:36:10;101089.98;;;5.11;39.84
64139;BME280;50435;43.700;-79.318;2024-03-02T00:38:44;101088.43;;;5.54;39.75
64139;BME280;50435;43.700;-79.318;2024-03-02T00:41:19;101092.73;;;5.42;39.78
64139;BME280;50435;43.700;-79.318;2024-03-02T00:43:55;101090.06;;;5.40;39.74
64139;BME280;50435;43.700;-79.318;2024-03-02T00:46:24;101092.68;;;4.39;39.79
64139;BME280;50435;43.700;-79.318;2024-03-02T00:48:54;101090.71;;;5.31;39.72
64139;BME280;50435;43.700;-79.318;2024-03-02T00:51:23;101089.16;;;5.18;39.87
64139;BME280;50435;43.700;-79.318;2024-03-02T00:53:52;101079.31;;;5.22;39.83
64139;BME280;50435;43.700;-79.318;2024-03-02T00:56:20;101073.74;;;5.19;39.74
64139;BME280;50435;43.700;-79.318;2024-03-02T00:58:47;101069.95;;;5.12;39.84
64139;BME280;50435;43.700;-79.318;2024-03-02T01:01:15;101073.12;;;5.08;39.87
64139;BME280;50435;43.700;-79.318;2024-03-02T01:03:43;101068.14;;;4.83;39.76
64139;BME280;50435;43.700;-79.318;2024-03-02T01:06:10;101068.38;;;5.06;39.67
64139;BME280;50435;43.700;-79.318;2024-03-02T01:08:38;101071.53;;;5.00;39.81
64139;BME280;50435;43.700;-79.318;2024-03-02T01:11:06;101071.14;;;4.95;39.84
64139;BME280;50435;43.700;-79.318;2024-03-02T01:13:33;101069.75;;;4.78;39.64
64139;BME280;50435;43.700;-79.318;2024-03-02T01:16:01;101067.50;;;5.10;39.60
64139;BME280;50435;43.700;-79.318;2024-03-02T01:18:28;101064.95;;;4.85;39.54
64139;BME280;50435;43.700;-79.318;2024-03-02T01:20:55;101064.78;;;5.10;39.44
64139;BME280;50435;43.700;-79.318;2024-03-02T01:23:23;101068.48;;;4.66;39.38
64139;BME280;50435;43.700;-79.318;2024-03-02T01:25:51;101069.54;;;5.20;39.22
64139;BME280;50435;43.700;-79.318;2024-03-02T01:28:20;101063.46;;;5.17;39.27
64139;BME280;50435;43.700;-79.318;2024-03-02T01:30:47;101064.71;;;5.17;39.27
64139;BME280;50435;43.700;-79.318;2024-03-02T01:33:16;101059.22;;;5.23;39.15
64139;BME280;50435;43.700;-79.318;2024-03-02T01:35:43;101059.11;;;4.78;39.44
64139;BME280;50435;43.700;-79.318;2024-03-02T01:38:11;101057.48;;;5.09;39.21
64139;BME280;50435;43.700;-79.318;2024-03-02T01:40:39;101056.59;;;5.14;39.29
64139;BME280;50435;43.700;-79.318;2024-03-02T01:43:07;101059.34;;;5.02;39.44
64139;BME280;50435;43.700;-79.318;2024-03-02T01:45:35;101052.32;;;5.01;39.46
64139;BME280;50435;43.700;-79.318;2024-03-02T01:48:04;101047.62;;;4.94;39.61
64139;BME280;50435;43.700;-79.318;2024-03-02T01:50:33;101048.63;;;4.61;39.75
64139;BME280;50435;43.700;-79.318;2024-03-02T01:53:01;101045.36;;;4.87;39.63
64139;BME280;50435;43.700;-79.318;2024-03-02T01:55:29;101044.11;;;4.72;39.88
64139;BME280;50435;43.700;-79.318;2024-03-02T01:57:57;101043.34;;;4.97;39.95
64139;BME280;50435;43.700;-79.318;2024-03-02T02:00:25;101037.63;;;4.14;40.03
64139;BME280;50435;43.700;-79.318;2024-03-02T02:02:53;101036.98;;;4.55;40.13
64139;BME280;50435;43.700;-79.318;2024-03-02T02:05:21;101036.19;;;4.42;40.36
64139;BME280;50435;43.700;-79.318;2024-03-02T02:07:48;101036.01;;;4.67;40.42
64139;BME280;50435;43.700;-79.318;2024-03-02T02:10:16;101030.92;;;4.85;40.38
64139;BME280;50435;43.700;-79.318;2024-03-02T02:12:43;101033.79;;;4.33;40.59
64139;BME280;50435;43.700;-79.318;2024-03-02T02:15:28;101036.18;;;4.79;40.73
64139;BME280;50435;43.700;-79.318;2024-03-02T02:17:57;101032.48;;;4.31;40.66
64139;BME280;50435;43.700;-79.318;2024-03-02T02:20:25;101030.54;;;3.73;40.86
64139;BME280;50435;43.700;-79.318;2024-03-02T02:22:57;101031.59;;;4.40;40.96
64139;BME280;50435;43.700;-79.318;2024-03-02T02:25:25;101024.63;;;3.66;41.18
64139;BME280;50435;43.700;-79.318;2024-03-02T02:27:53;101025.87;;;4.12;41.26
64139;BME280;50435;43.700;-79.318;2024-03-02T02:30:22;101024.93;;;3.87;41.13
64139;BME280;50435;43.700;-79.318;2024-03-02T02:32:50;101025.02;;;4.24;41.16
64139;BME280;50435;43.700;-79.318;2024-03-02T02:35:17;101025.24;;;4.10;41.18
64139;BME280;50435;43.700;-79.318;2024-03-02T02:37:46;101020.79;;;3.88;41.11
64139;BME280;50435;43.700;-79.318;2024-03-02T02:40:14;101019.86;;;4.04;41.06
64139;BME280;50435;43.700;-79.318;2024-03-02T02:42:42;101019.69;;;3.59;41.04
64139;BME280;50435;43.700;-79.318;2024-03-02T02:45:09;101018.70;;;3.95;41.16
64139;BME280;50435;43.700;-79.318;2024-03-02T02:47:36;101019.31;;;3.84;41.31
64139;BME280;50435;43.700;-79.318;2024-03-02T02:50:04;101017.49;;;3.86;41.22
64139;BME280;50435;43.700;-79.318;2024-03-02T02:52:35;101013.23;;;3.63;41.24
64139;BME280;50435;43.700;-79.318;2024-03-02T02:55:04;101012.57;;;3.64;41.49
64139;BME280;50435;43.700;-79.318;2024-03-02T02:57:32;101009.52;;;3.62;41.45
64139;BME280;50435;43.700;-79.318;2024-03-02T02:59:59;101006.23;;;3.55;41.49
64139;BME280;50435;43.700;-79.318;2024-03-02T03:02:28;101005.54;;;3.04;41.52
64139;BME280;50435;43.700;-79.318;2024-03-02T03:04:55;101000.96;;;3.26;41.53
64139;BME280;50435;43.700;-79.318;2024-03-02T03:07:23;100998.71;;;2.98;41.56
64139;BME280;50435;43.700;-79.318;2024-03-02T03:09:51;100990.85;;;3.33;41.66
64139;BME280;50435;43.700;-79.318;2024-03-02T03:12:18;100989.51;;;3.51;41.69
64139;BME280;50435;43.700;-79.318;2024-03-02T03:14:45;100987.85;;;3.28;41.65
64139;BME280;50435;43.700;-79.318;2024-03-02T03:17:13;100994.16;;;3.26;41.73
64139;BME280;50435;43.700;-79.318;2024-03-02T03:19:40;100990.29;;;3.17;41.80
64139;BME280;50435;43.700;-79.318;2024-03-02T03:22:07;100991.59;;;3.50;41.63
64139;BME280;50435;43.700;-79.318;2024-03-02T03:24:34;100994.79;;;3.12;41.82
64139;BME280;50435;43.700;-79.318;2024-03-02T03:27:01;100991.97;;;3.23;41.87
64139;BME280;50435;43.700;-79.318;2024-03-02T03:29:29;100991.71;;;2.82;41.80
64139;BME280;50435;43.700;-79.318;2024-03-02T03:31:56;100992.15;;;3.14;42.05
64139;BME280;50435;43.700;-79.318;2024-03-02T03:34:23;100988.60;;;2.45;42.01
64139;BME280;50435;43.700;-79.318;2024-03-02T03:36:50;100991.35;;;2.87;42.04
64139;BME280;50435;43.700;-79.318;2024-03-02T03:39:18;100987.90;;;3.01;42.24
64139;BME280;50435;43.700;-79.318;2024-03-02T03:41:45;100988.72;;;2.86;42.04
64139;BME280;50435;43.700;-79.318;2024-03-02T03:44:12;100987.79;;;2.86;41.99
64139;BME280;50435;43.700;-79.318;2024-03-02T03:46:40;100983.38;;;2.73;42.12
64139;BME280;50435;43.700;-79.318;2024-03-02T03:49:07;100985.94;;;2.94;42.12
64139;BME280;50435;43.700;-79.318;2024-03-02T03:51:34;100985.17;;;2.85;41.93
64139;BME280;50435;43.700;-79.318;2024-03-02T03:54:02;100989.31;;;2.78;41.97
64139;BME280;50435;43.700;-79.318;2024-03-02T03:56:29;100988.98;;;2.75;42.02
64139;BME280;50435;43.700;-79.318;2024-03-02T03:58:57;100986.93;;;3.12;41.96
64139;BME280;50435;43.700;-79.318;2024-03-02T04:01:24;100987.99;;;2.82;42.12
64139;BME280;50435;43.700;-79.318;2024-03-02T04:03:51;100984.60;;;2.89;42.01
64139;BME280;50435;43.700;-79.318;2024-03-02T04:06:19;100985.20;;;2.81;42.09
64139;BME280;50435;43.700;-79.318;2024-03-02T04:08:47;100987.97;;;2.88;42.22
64139;BME280;50435;43.700;-79.318;2024-03-02T04:11:15;100989.12;;;3.05;42.14
64139;BME280;50435;43.700;-79.318;2024-03-02T04:13:42;100989.21;;;2.95;42.13
64139;BME280;50435;43.700;-79.318;2024-03-02T04:16:09;100982.92;;;2.51;42.13
64139;BME280;50435;43.700;-79.318;2024-03-02T04:18:36;100980.30;;;2.45;42.20
64139;BME280;50435;43.700;-79.318;2024-03-02T04:21:04;100978.43;;;2.65;42.14
64139;BME280;50435;43.700;-79.318;2024-03-02T04:23:31;100971.74;;;2.42;42.21
64139;BME280;50435;43.700;-79.318;2024-03-02T04:25:58;100971.01;;;2.97;42.15
64139;BME280;50435;43.700;-79.318;2024-03-02T04:28:25;100965.20;;;2.46;42.08
64139;BME280;50435;43.700;-79.318;2024-03-02T04:30:53;100963.11;;;3.02;42.02
64139;BME280;50435;43.700;-79.318;2024-03-02T04:33:20;100959.94;;;2.96;42.13
64139;BME280;50435;43.700;-79.318;2024-03-02T04:35:48;100957.60;;;2.67;42.13
64139;BME280;50435;43.700;-79.318;2024-03-02T04:38:15;100955.37;;;2.95;42.11
64139;BME280;50435;43.700;-79.318;2024-03-02T04:40:42;100954.19;;;2.90;42.23
64139;BME280;50435;43.700;-79.318;2024-03-02T04:43:10;100953.21;;;2.70;42.36
64139;BME280;50435;43.700;-79.318;2024-03-02T04:45:38;100952.80;;;2.50;42.35
64139;BME280;50435;43.700;-79.318;2024-03-02T04:48:07;100950.52;;;2.30;42.49
64139;BME280;50435;43.700;-79.318;2024-03-02T04:50:34;100950.53;;;2.51;42.60
64139;BME280;50435;43.700;-79.318;2024-03-02T04:53:02;100952.62;;;2.57;42.52
64139;BME280;50435;43.700;-79.318;2024-03-02T04:55:29;100952.60;;;2.23;42.54
64139;BME280;50435;43.700;-79.318;2024-03-02T04:57:56;100948.41;;;2.61;42.32
64139;BME280;50435;43.700;-79.318;2024-03-02T05:00:24;100951.70;;;1.51;42.53
64139;BME280;50435;43.700;-79.318;2024-03-02T05:02:51;100953.01;;;2.29;42.42
64139;BME280;50435;43.700;-79.318;2024-03-02T05:05:18;100956.55;;;2.37;42.70
64139;BME280;50435;43.700;-79.318;2024-03-02T05:07:46;100953.56;;;2.61;42.66
64139;BME280;50435;43.700;-79.318;2024-03-02T05:10:13;100955.01;;;2.44;42.73
64139;BME280;50435;43.700;-79.318;2024-03-02T05:12:41;100948.95;;;2.31;42.93
64139;BME280;50435;43.700;-79.318;2024-03-02T05:15:10;100946.66;;;2.29;43.01
64139;BME280;50435;43.700;-79.318;2024-03-02T05:17:38;100943.34;;;2.35;42.97
64139;BME280;50435;43.700;-79.318;2024-03-02T05:20:07;100939.49;;;2.41;42.81
64139;BME280;50435;43.700;-79.318;2024-03-02T05:22:35;100937.79;;;2.51;42.56
64139;BME280;50435;43.700;-79.318;2024-03-02T05:25:04;100940.14;;;2.53;42.49
64139;BME280;50435;43.700;-79.318;2024-03-02T05:27:31;100932.30;;;2.43;41.88
64139;BME280;50435;43.700;-79.318;2024-03-02T05:30:00;100932.90;;;2.59;42.17
64139;BME280;50435;43.700;-79.318;2024-03-02T05:32:27;100935.12;;;2.83;42.13
64139;BME280;50435;43.700;-79.318;2024-03-02T05:34:55;100935.30;;;3.00;41.64
64139;BME280;50435;43.700;-79.318;2024-03-02T05:37:23;100934.81;;;2.86;41.42
64139;BME280;50435;43.700;-79.318;2024-03-02T05:39:50;100936.05;;;3.42;40.97
64139;BME280;50435;43.700;-79.318;2024-03-02T05:42:17;100936.34;;;3.29;40.76
64139;BME280;50435;43.700;-79.318;2024-03-02T05:44:44;100940.33;;;3.26;40.79
64139;BME280;50435;43.700;-79.318;2024-03-02T05:47:11;100939.78;;;3.19;41.12
64139;BME280;50435;43.700;-79.318;2024-03-02T05:49:39;100940.98;;;3.23;41.01
64139;BME280;50435;43.700;-79.318;2024-03-02T05:52:06;100941.03;;;3.41;40.86
64139;BME280;50435;43.700;-79.318;2024-03-02T05:54:33;100941.91;;;3.22;40.80
64139;BME280;50435;43.700;-79.318;2024-03-02T05:57:01;100946.72;;;3.51;40.79
64139;BME280;50435;43.700;-79.318;2024-03-02T05:59:28;100950.15;;;2.86;40.80
64139;BME280;50435;43.700;-79.318;2024-03-02T06:01:55;100955.08;;;3.60;40.90
64139;BME280;50435;43.700;-79.318;2024-03-02T06:04:22;100952.51;;;3.46;40.70
64139;BME280;50435;43.700;-79.318;2024-03-02T06:06:50;100953.10;;;3.69;40.86
64139;BME280;50435;43.700;-79.318;2024-03-02T06:09:17;100950.25;;;3.65;40.98
64139;BME280;50435;43.700;-79.318;2024-03-02T06:11:44;100948.16;;;3.48;40.92
64139;BME280;50435;43.700;-79.318;2024-03-02T06:14:11;100952.63;;;3.71;40.85
64139;BME280;50435;43.700;-79.318;2024-03-02T06:16:39;100948.84;;;3.53;40.93
64139;BME280;50435;43.700;-79.318;2024-03-02T06:19:06;100951.85;;;3.80;40.86
64139;BME280;50435;43.700;-79.318;2024-03-02T06:21:33;100950.78;;;3.34;40.94
64139;BME280;50435;43.700;-79.318;2024-03-02T06:24:00;100952.05;;;3.84;40.97
64139;BME280;50435;43.700;-79.318;2024-03-02T06:26:28;100948.01;;;3.61;40.98
64139;BME280;50435;43.700;-79.318;2024-03-02T06:28:55;100944.81;;;3.87;40.97
64139;BME280;50435;43.700;-79.318;2024-03-02T06:31:22;100944.21;;;3.19;40.84
64139;BME280;50435;43.700;-79.318;2024-03-02T06:33:50;100944.41;;;3.70;40.95
64139;BME280;50435;43.700;-79.318;2024-03-02T06:36:18;100941.34;;;3.72;40.90
64139;BME280;50435;43.700;-79.318;2024-03-02T06:38:45;100935.28;;;3.75;40.85
64139;BME280;50435;43.700;-79.318;2024-03-02T06:41:12;100936.08;;;3.95;41.06
64139;BME280;50435;43.700;-79.318;2024-03-02T06:43:40;100931.38;;;4.01;40.93
64139;BME280;50435;43.700;-79.318;2024-03-02T06:46:07;100926.85;;;3.81;40.93
64139;BME280;50435;43.700;-79.318;2024-03-02T06:48:34;100930.00;;;3.84;41.00
64139;BME280;50435;43.700;-79.318;2024-03-02T06:51:02;100928.47;;;3.88;40.93
64139;BME280;50435;43.700;-79.318;2024-03-02T06:53:29;100928.52;;;3.46;40.85
64139;BME280;50435;43.700;-79.318;2024-03-02T06:55:56;100929.80;;;3.74;40.85
64139;BME280;50435;43.700;-79.318;2024-03-02T06:58:23;100932.47;;;3.30;40.76
64139;BME280;50435;43.700;-79.318;2024-03-02T07:00:51;100937.17;;;3.83;40.70
64139;BME280;50435;43.700;-79.318;2024-03-02T07:03:18;100937.74;;;4.13;40.69
64139;BME280;50435;43.700;-79.318;2024-03-02T07:05:45;100935.70;;;4.15;40.63
64139;BME280;50435;43.700;-79.318;2024-03-02T07:08:12;100935.63;;;4.07;40.78
64139;BME280;50435;43.700;-79.318;2024-03-02T07:10:40;100927.76;;;4.11;40.73
64139;BME280;50435;43.700;-79.318;2024-03-02T07:13:07;100927.10;;;3.96;40.67
64139;BME280;50435;43.700;-79.318;2024-03-02T07:15:34;100927.74;;;3.66;40.82
64139;BME280;50435;43.700;-79.318;2024-03-02T07:18:01;100926.03;;;3.92;40.88
64139;BME280;50435;43.700;-79.318;2024-03-02T07:20:29;100923.54;;;3.62;41.07
64139;BME280;50435;43.700;-79.318;2024-03-02T07:22:56;100918.35;;;4.16;41.01
64139;BME280;50435;43.700;-79.318;2024-03-02T07:25:23;100916.71;;;3.65;41.12
64139;BME280;50435;43.700;-79.318;2024-03-02T07:27:51;100913.58;;;4.13;41.20
64139;BME280;50435;43.700;-79.318;2024-03-02T07:30:19;100917.92;;;4.13;41.12
64139;BME280;50435;43.700;-79.318;2024-03-02T07:32:46;100913.14;;;3.92;41.14
64139;BME280;50435;43.700;-79.318;2024-03-02T07:35:13;100911.88;;;4.18;41.06
64139;BME280;50435;43.700;-79.318;2024-03-02T07:37:41;100906.56;;;4.16;41.10
64139;BME280;50435;43.700;-79.318;2024-03-02T07:40:10;100908.95;;;4.18;41.09
64139;BME280;50435;43.700;-79.318;2024-03-02T07:42:38;100911.61;;;4.21;41.03
64139;BME280;50435;43.700;-79.318;2024-03-02T07:45:06;100907.75;;;4.31;40.91
64139;BME280;50435;43.700;-79.318;2024-03-02T07:47:34;100907.19;;;3.77;40.95
64139;BME280;50435;43.700;-79.318;2024-03-02T07:50:02;100908.61;;;4.03;41.14
64139;BME280;50435;43.700;-79.318;2024-03-02T07:52:30;100905.31;;;3.76;41.13
64139;BME280;50435;43.700;-79.318;2024-03-02T07:54:57;100901.51;;;3.77;41.26
64139;BME280;50435;43.700;-79.318;2024-03-02T07:57:25;100900.48;;;3.52;41.32
64139;BME280;50435;43.700;-79.318;2024-03-02T07:59:52;100900.71;;;4.06;41.16
64139;BME280;50435;43.700;-79.318;2024-03-02T08:02:19;100897.27;;;4.27;41.41
64139;BME280;50435;43.700;-79.318;2024-03-02T08:04:47;100893.34;;;3.85;41.36
64139;BME280;50435;43.700;-79.318;2024-03-02T08:07:14;100889.00;;;4.44;41.26
64139;BME280;50435;43.700;-79.318;2024-03-02T08:09:41;100887.15;;;4.35;41.36
64139;BME280;50435;43.700;-79.318;2024-03-02T08:12:09;100878.48;;;4.45;41.47
64139;BME280;50435;43.700;-79.318;2024-03-02T08:14:36;100873.15;;;4.24;41.34
64139;BME280;50435;43.700;-79.318;2024-03-02T08:17:03;100865.64;;;4.10;41.24
64139;BME280;50435;43.700;-79.318;2024-03-02T08:19:30;100859.61;;;4.08;41.40
64139;BME280;50435;43.700;-79.318;2024-03-02T08:21:58;100854.51;;;4.21;41.70
64139;BME280;50435;43.700;-79.318;2024-03-02T08:24:26;100851.75;;;3.70;41.16
64139;BME280;50435;43.700;-79.318;2024-03-02T08:26:53;100847.32;;;4.28;41.16
64139;BME280;50435;43.700;-79.318;2024-03-02T08:29:20;100847.01;;;4.79;41.78
64139;BME280;50435;43.700;-79.318;2024-03-02T08:31:47;100839.92;;;4.92;41.67
64139;BME280;50435;43.700;-79.318;2024-03-02T08:34:15;100838.87;;;4.74;41.74
64139;BME280;50435;43.700;-79.318;2024-03-02T08:36:42;100837.91;;;4.79;42.20
64139;BME280;50435;43.700;-79.318;2024-03-02T08:39:10;100833.05;;;4.56;42.27
64139;BME280;50435;43.700;-79.318;2024-03-02T08:41:38;100831.97;;;4.35;42.17
64139;BME280;50435;43.700;-79.318;2024-03-02T08:44:05;100835.95;;;4.62;41.49
64139;BME280;50435;43.700;-79.318;2024-03-02T08:46:32;100831.85;;;4.49;43.04
64139;BME280;50435;43.700;-79.318;2024-03-02T08:49:00;100834.37;;;4.45;42.31
64139;BME280;50435;43.700;-79.318;2024-03-02T08:51:28;100827.18;;;4.41;43.08
64139;BME280;50435;43.700;-79.318;2024-03-02T08:53:55;100828.21;;;4.95;42.26
64139;BME280;50435;43.700;-79.318;2024-03-02T08:56:23;100824.34;;;4.48;42.28
64139;BME280;50435;43.700;-79.318;2024-03-02T08:58:51;100827.93;;;4.82;42.00
64139;BME280;50435;43.700;-79.318;2024-03-02T09:01:19;100824.71;;;4.86;42.38
64139;BME280;50435;43.700;-79.318;2024-03-02T09:03:46;100822.75;;;4.62;42.59
64139;BME280;50435;43.700;-79.318;2024-03-02T09:06:14;100824.59;;;4.89;42.60
64139;BME280;50435;43.700;-79.318;2024-03-02T09:08:42;100832.08;;;4.83;43.09
64139;BME280;50435;43.700;-79.318;2024-03-02T09:11:10;100827.31;;;4.78;42.66
64139;BME280;50435;43.700;-79.318;2024-03-02T09:13:38;100824.58;;;4.87;42.26
64139;BME280;50435;43.700;-79.318;2024-03-02T09:16:06;100831.04;;;4.89;42.51
64139;BME280;50435;43.700;-79.318;2024-03-02T09:18:34;100823.46;;;5.01;42.31
64139;BME280;50435;43.700;-79.318;2024-03-02T09:21:01;100822.68;;;4.95;41.64
64139;BME280;50435;43.700;-79.318;2024-03-02T09:23:28;100821.48;;;4.95;41.59
64139;BME280;50435;43.700;-79.318;2024-03-02T09:25:56;100819.32;;;5.10;42.71
64139;BME280;50435;43.700;-79.318;2024-03-02T09:28:23;100821.63;;;4.74;41.83
64139;BME280;50435;43.700;-79.318;2024-03-02T09:30:51;100820.32;;;5.06;41.58
64139;BME280;50435;43.700;-79.318;2024-03-02T09:33:18;100813.18;;;5.08;42.36
64139;BME280;50435;43.700;-79.318;2024-03-02T09:35:45;100820.41;;;5.20;41.94
64139;BME280;50435;43.700;-79.318;2024-03-02T09:38:13;100824.03;;;5.33;42.19
64139;BME280;50435;43.700;-79.318;2024-03-02T09:40:41;100826.06;;;5.51;42.53
64139;BME280;50435;43.700;-79.318;2024-03-02T09:43:09;100825.99;;;5.28;41.35
64139;BME280;50435;43.700;-79.318;2024-03-02T09:45:38;100823.61;;;5.23;41.93
64139;BME280;50435;43.700;-79.318;2024-03-02T09:48:06;100819.14;;;5.26;41.94
64139;BME280;50435;43.700;-79.318;2024-03-02T09:50:34;100817.52;;;5.06;41.57
64139;BME280;50435;43.700;-79.318;2024-03-02T09:53:02;100822.23;;;5.44;41.64
64139;BME280;50435;43.700;-79.318;2024-03-02T09:55:29;100818.20;;;5.27;42.38
64139;BME280;50435;43.700;-79.318;2024-03-02T09:57:57;100819.52;;;5.41;42.01
64139;BME280;50435;43.700;-79.318;2024-03-02T10:00:24;100823.00;;;4.55;42.31
64139;BME280;50435;43.700;-79.318;2024-03-02T10:02:51;100824.32;;;5.43;42.31
64139;BME280;50435;43.700;-79.318;2024-03-02T10:05:25;100823.29;;;5.38;41.88
64139;BME280;50435;43.700;-79.318;2024-03-02T10:07:59;100819.61;;;5.45;41.83
64139;BME280;50435;43.700;-79.318;2024-03-02T10:10:36;100817.15;;;5.01;42.52
64139;BME280;50435;43.700;-79.318;2024-03-02T10:13:05;100816.41;;;5.47;41.42
64139;BME280;50435;43.700;-79.318;2024-03-02T10:15:34;100809.58;;;5.34;42.23
64139;BME280;50435;43.700;-79.318;2024-03-02T10:18:02;100808.97;;;5.53;42.15
64139;BME280;50435;43.700;-79.318;2024-03-02T10:20:29;100811.70;;;5.37;42.13
64139;BME280;50435;43.700;-79.318;2024-03-02T10:23:10;100816.98;;;5.34;42.03
64139;BME280;50435;43.700;-79.318;2024-03-02T10:25:37;100819.23;;;5.15;41.88
64139;BME280;50435;43.700;-79.318;2024-03-02T10:28:04;100820.66;;;5.51;41.96
64139;BME280;50435;43.700;-79.318;2024-03-02T10:30:33;100823.25;;;5.32;41.90
64139;BME280;50435;43.700;-79.318;2024-03-02T10:33:01;100825.52;;;5.60;42.13
64139;BME280;50435;43.700;-79.318;2024-03-02T10:35:28;100830.18;;;5.18;42.13
64139;BME280;50435;43.700;-79.318;2024-03-02T10:37:56;100830.05;;;5.69;42.09
64139;BME280;50435;43.700;-79.318;2024-03-02T10:40:26;100829.51;;;4.92;41.87
64139;BME280;50435;43.700;-79.318;2024-03-02T10:42:54;100832.44;;;5.44;42.18
64139;BME280;50435;43.700;-79.318;2024-03-02T10:45:23;100829.32;;;5.62;41.78
64139;BME280;50435;43.700;-79.318;2024-03-02T10:47:51;100826.42;;;5.73;42.05
64139;BME280;50435;43.700;-79.318;2024-03-02T10:50:19;100832.89;;;5.68;41.96
64139;BME280;50435;43.700;-79.318;2024-03-02T10:52:46;100834.47;;;5.62;42.17
64139;BME280;50435;43.700;-79.318;2024-03-02T10:55:13;100828.56;;;5.67;41.98
64139;BME280;50435;43.700;-79.318;2024-03-02T10:57:44;100825.72;;;5.60;42.22
64139;BME280;50435;43.700;-79.318;2024-03-02T11:00:14;100822.87;;;5.57;42.48
64139;BME280;50435;43.700;-79.318;2024-03-02T11:02:50;100819.12;;;5.42;42.38
64139;BME280;50435;43.700;-79.318;2024-03-02T11:05:26;100818.63;;;5.47;42.34
64139;BME280;50435;43.700;-79.318;2024-03-02T11:07:59;100822.81;;;5.65;42.39
64139;BME280;50435;43.700;-79.318;2024-03-02T11:10:29;100823.91;;;4.95;42.56
64139;BME280;50435;43.700;-79.318;2024-03-02T11:13:04;100823.82;;;5.58;42.73
64139;BME280;50435;43.700;-79.318;2024-03-02T11:15:34;100816.90;;;5.37;42.46
64139;BME280;50435;43.700;-79.318;2024-03-02T11:18:04;100820.57;;;5.56;42.66
64139;BME280;50435;43.700;-79.318;2024-03-02T11:20:32;100818.33;;;5.09;42.90
64139;BME280;50435;43.700;-79.318;2024-03-02T11:23:05;100817.73;;;5.46;43.14
64139;BME280;50435;43.700;-79.318;2024-03-02T11:25:32;100816.12;;;5.23;43.23
64139;BME280;50435;43.700;-79.318;2024-03-02T11:28:01;100819.07;;;5.47;43.22
64139;BME280;50435;43.700;-79.318;2024-03-02T11:30:53;100823.58;;;5.02;43.31
64139;BME280;50435;43.700;-79.318;2024-03-02T11:33:25;100822.21;;;5.20;43.53
64139;BME280;50435;43.700;-79.318;2024-03-02T11:35:53;100818.02;;;5.21;43.74
64139;BME280;50435;43.700;-79.318;2024-03-02T11:38:20;100812.13;;;5.40;43.81
64139;BME280;50435;43.700;-79.318;2024-03-02T11:40:47;100805.01;;;5.15;43.88
64139;BME280;50435;43.700;-79.318;2024-03-02T11:43:15;100805.01;;;5.40;44.18
64139;BME280;50435;43.700;-79.318;2024-03-02T11:45:43;100807.50;;;5.15;44.12
64139;BME280;50435;43.700;-79.318;2024-03-02T11:48:11;100812.58;;;5.31;44.42
64139;BME280;50435;43.700;-79.318;2024-03-02T11:50:41;100814.28;;;5.30;44.61
64139;BME280;50435;43.700;-79.318;2024-03-02T11:53:10;100814.87;;;5.31;44.59
64139;BME280;50435;43.700;-79.318;2024-03-02T11:55:37;100818.58;;;5.25;44.85
64139;BME280;50435;43.700;-79.318;2024-03-02T11:58:05;100818.43;;;5.24;44.89
64139;BME280;50435;43.700;-79.318;2024-03-02T12:00:33;100819.80;;;5.24;44.56
64139;BME280;50435;43.700;-79.318;2024-03-02T12:03:01;100823.35;;;5.25;44.90
64139;BME280;50435;43.700;-79.318;2024-03-02T12:05:30;100824.72;;;5.02;44.94
64139;BME280;50435;43.700;-79.318;2024-03-02T12:07:58;100824.61;;;5.24;45.00
64139;BME280;50435;43.700;-79.318;2024-03-02T12:10:26;100821.46;;;5.00;45.13
64139;BME280;50435;43.700;-79.318;2024-03-02T12:12:56;100821.80;;;5.18;45.14
64139;BME280;50435;43.700;-79.318;2024-03-02T12:15:25;100823.98;;;4.69;45.26
64139;BME280;50435;43.700;-79.318;2024-03-02T12:17:54;100830.86;;;4.96;45.29
64139;BME280;50435;43.700;-79.318;2024-03-02T12:20:22;100832.89;;;5.20;45.30
64139;BME280;50435;43.700;-79.318;2024-03-02T12:22:50;100831.83;;;5.04;45.24
64139;BME280;50435;43.700;-79.318;2024-03-02T12:25:19;100832.87;;;5.23;45.28
64139;BME280;50435;43.700;-79.318;2024-03-02T12:27:47;100834.72;;;5.23;45.13
64139;BME280;50435;43.700;-79.318;2024-03-02T12:30:16;100835.77;;;5.25;45.14
64139;BME280;50435;43.700;-79.318;2024-03-02T12:32:44;100833.25;;;5.23;45.06
64139;BME280;50435;43.700;-79.318;2024-03-02T12:35:12;100840.86;;;5.25;45.24
64139;BME280;50435;43.700;-79.318;2024-03-02T12:37:43;100838.13;;;5.26;45.13
64139;BME280;50435;43.700;-79.318;2024-03-02T12:40:11;100841.91;;;5.22;45.26
64139;BME280;50435;43.700;-79.318;2024-03-02T12:42:40;100847.15;;;5.00;45.40
64139;BME280;50435;43.700;-79.318;2024-03-02T12:45:08;100845.67;;;5.01;45.29